createdAt,value
2023-04-20T00:01:48.378Z,3.47
2023-04-20T00:04:16.446Z,3.75
2023-04-20T00:06:44.140Z,3.00
2023-04-20T00:09:11.541Z,3.22
2023-04-20T00:11:38.670Z,3.53
2023-04-20T00:14:05.975Z,3.28
2023-04-20T00:16:33.386Z,3.72
2023-04-20T00:19:01.137Z,3.35
2023-04-20T00:21:28.314Z,3.30
2023-04-20T00:23:55.466Z,3.72
2023-04-20T00:26:22.575Z,3.50
2023-04-20T00:28:50.876Z,3.75
2023-04-20T00:31:18.285Z,3.55
2023-04-20T00:33:45.465Z,3.88
2023-04-20T00:36:12.539Z,3.25
2023-04-20T00:38:39.882Z,4.63
2023-04-20T00:41:06.975Z,3.72
2023-04-20T00:43:34.084Z,4.32
2023-04-20T00:46:01.344Z,3.40
2023-04-20T00:48:28.448Z,3.40
2023-04-20T00:50:55.564Z,3.90
2023-04-20T00:53:22.749Z,3.80
2023-04-20T00:55:51.605Z,4.18
2023-04-20T00:58:18.736Z,4.07
2023-04-20T01:00:45.851Z,3.55
2023-04-20T01:03:13.151Z,3.17
2023-04-20T01:05:40.428Z,3.42
2023-04-20T01:08:07.599Z,3.10
2023-04-20T01:10:34.720Z,3.28
2023-04-20T01:13:01.867Z,3.63
2023-04-20T01:15:29.009Z,3.08
2023-04-20T01:17:57.661Z,3.60
2023-04-20T01:20:24.787Z,4.60
2023-04-20T01:22:53.661Z,3.35
2023-04-20T01:25:21.214Z,3.65
2023-04-20T01:27:48.686Z,3.63
2023-04-20T01:30:17.281Z,3.70
2023-04-20T01:32:44.628Z,3.60
2023-04-20T01:35:12.072Z,3.45
2023-04-20T01:37:39.943Z,3.38
2023-04-20T01:40:09.806Z,3.72
2023-04-20T01:42:36.913Z,4.03
2023-04-20T01:45:05.593Z,4.35
2023-04-20T01:47:32.811Z,3.55
2023-04-20T01:49:59.932Z,4.15
2023-04-20T01:52:27.110Z,3.70
2023-04-20T01:54:54.211Z,3.35
2023-04-20T01:57:21.305Z,3.35
2023-04-20T01:59:48.482Z,3.70
2023-04-20T02:02:15.624Z,3.90
2023-04-20T02:04:42.761Z,3.75
2023-04-20T02:07:09.894Z,4.03
2023-04-20T02:09:37.002Z,4.30
2023-04-20T02:12:04.282Z,4.10
2023-04-20T02:14:31.768Z,3.72
2023-04-20T02:16:59.299Z,3.83
2023-04-20T02:19:26.463Z,4.18
2023-04-20T02:21:53.571Z,3.70
2023-04-20T02:24:24.154Z,3.70
2023-04-20T02:26:51.343Z,3.78
2023-04-20T02:29:18.624Z,4.70
2023-04-20T02:31:46.086Z,4.05
2023-04-20T02:34:13.210Z,3.72
2023-04-20T02:36:40.401Z,3.75
2023-04-20T02:39:07.549Z,4.47
2023-04-20T02:41:34.715Z,3.72
2023-04-20T02:44:01.916Z,3.65
2023-04-20T02:46:29.048Z,4.00
2023-04-20T02:48:56.490Z,4.70
2023-04-20T02:51:23.679Z,4.10
2023-04-20T02:53:51.060Z,4.13
2023-04-20T02:56:18.466Z,3.92
2023-04-20T02:58:46.578Z,3.85
2023-04-20T03:01:13.707Z,4.40
2023-04-20T03:03:40.932Z,3.85
2023-04-20T03:06:08.367Z,3.58
2023-04-20T03:08:35.786Z,2.80
2023-04-20T03:11:02.939Z,3.67
2023-04-20T03:13:30.173Z,2.70
2023-04-20T03:15:57.333Z,4.15
2023-04-20T03:18:24.503Z,4.05
2023-04-20T03:20:51.669Z,3.50
2023-04-20T03:23:18.900Z,3.72
2023-04-20T03:25:46.399Z,3.17
2023-04-20T03:28:13.544Z,3.67
2023-04-20T03:30:40.629Z,3.88
2023-04-20T03:33:07.927Z,3.35
2023-04-20T03:35:35.370Z,3.63
2023-04-20T03:38:02.469Z,3.13
2023-04-20T03:40:29.661Z,3.97
2023-04-20T03:42:56.808Z,3.67
2023-04-20T03:45:23.909Z,3.63
2023-04-20T03:47:51.021Z,3.47
2023-04-20T03:50:18.187Z,3.58
2023-04-20T03:52:45.282Z,3.55
2023-04-20T03:55:12.373Z,3.20
2023-04-20T03:57:39.530Z,3.40
2023-04-20T04:00:07.117Z,3.38
2023-04-20T04:02:37.578Z,3.22
2023-04-20T04:05:05.693Z,3.70
2023-04-20T04:07:32.831Z,3.58
2023-04-20T04:09:59.950Z,3.83
2023-04-20T04:12:27.089Z,3.67
2023-04-20T04:14:54.151Z,3.05
2023-04-20T04:17:21.304Z,3.70
2023-04-20T04:19:48.489Z,2.92
2023-04-20T04:22:15.581Z,2.63
2023-04-20T04:24:42.754Z,3.45
2023-04-20T04:27:11.061Z,3.28
2023-04-20T04:29:38.775Z,3.25
2023-04-20T04:32:06.218Z,3.45
2023-04-20T04:34:33.850Z,3.47
2023-04-20T04:37:01.849Z,3.72
2023-04-20T04:39:29.065Z,2.80
2023-04-20T04:41:57.757Z,3.58
2023-04-20T04:44:26.052Z,3.38
2023-04-20T04:46:53.492Z,3.55
2023-04-20T04:49:21.048Z,3.63
2023-04-20T04:51:48.486Z,3.55
2023-04-20T04:54:15.622Z,3.47
2023-04-20T04:56:42.767Z,4.07
2023-04-20T04:59:09.885Z,3.53
2023-04-20T05:01:37.019Z,3.92
2023-04-20T05:04:04.374Z,4.00
2023-04-20T05:06:32.590Z,2.95
2023-04-20T05:08:59.705Z,4.10
2023-04-20T05:11:27.069Z,4.47
2023-04-20T05:13:54.732Z,4.05
2023-04-20T05:16:21.912Z,3.08
2023-04-20T05:18:49.055Z,4.28
2023-04-20T05:21:16.180Z,4.18
2023-04-20T05:23:44.156Z,3.58
2023-04-20T05:26:11.338Z,4.25
2023-04-20T05:28:38.807Z,4.72
2023-04-20T05:31:08.022Z,3.95
2023-04-20T05:33:35.256Z,4.13
2023-04-20T05:36:02.422Z,4.15
2023-04-20T05:38:29.544Z,4.55
2023-04-20T05:40:57.019Z,4.90
2023-04-20T05:43:24.223Z,3.78
2023-04-20T05:45:51.653Z,4.47
2023-04-20T05:48:18.826Z,4.78
2023-04-20T05:50:45.973Z,4.43
2023-04-20T05:53:13.159Z,4.68
2023-04-20T05:55:40.293Z,3.30
2023-04-20T05:58:07.405Z,4.68
2023-04-20T06:00:34.549Z,4.90
2023-04-20T06:03:02.048Z,4.10
2023-04-20T06:05:29.338Z,5.60
2023-04-20T06:07:56.575Z,4.32
2023-04-20T06:10:23.727Z,4.90
2023-04-20T06:12:51.027Z,4.72
2023-04-20T06:15:18.234Z,4.13
2023-04-20T06:17:45.418Z,4.45
2023-04-20T06:20:12.855Z,4.68
2023-04-20T06:22:44.529Z,4.68
2023-04-20T06:25:12.144Z,5.18
2023-04-20T06:27:39.253Z,5.93
2023-04-20T06:30:06.794Z,4.97
2023-04-20T06:32:34.090Z,4.57
2023-04-20T06:35:01.247Z,5.22
2023-04-20T06:37:28.427Z,4.07
2023-04-20T06:39:55.838Z,4.80
2023-04-20T06:42:23.536Z,4.38
2023-04-20T06:44:50.983Z,4.25
2023-04-20T06:47:18.181Z,5.07
2023-04-20T06:49:45.303Z,4.38
2023-04-20T06:52:12.387Z,5.10
2023-04-20T06:54:39.499Z,3.90
2023-04-20T06:57:06.613Z,6.18
2023-04-20T06:59:33.714Z,4.40
2023-04-20T07:02:01.573Z,4.35
2023-04-20T07:04:28.877Z,5.07
2023-04-20T07:06:56.028Z,5.03
2023-04-20T07:09:23.291Z,3.90
2023-04-20T07:11:50.550Z,5.20
2023-04-20T07:14:17.650Z,4.10
2023-04-20T07:16:44.807Z,4.80
2023-04-20T07:19:11.910Z,4.75
2023-04-20T07:21:38.993Z,4.32
2023-04-20T07:24:06.320Z,4.32
2023-04-20T07:26:33.411Z,4.47
2023-04-20T07:29:00.897Z,4.40
2023-04-20T07:31:28.068Z,4.00
2023-04-20T07:33:55.302Z,4.35
2023-04-20T07:36:22.727Z,5.30
2023-04-20T07:38:50.208Z,4.05
2023-04-20T07:41:17.357Z,4.25
2023-04-20T07:43:44.901Z,4.43
2023-04-20T07:46:20.148Z,3.80
2023-04-20T07:48:47.458Z,3.53
2023-04-20T07:51:14.542Z,4.13
2023-04-20T07:53:41.678Z,4.38
2023-04-20T07:56:08.774Z,4.45
2023-04-20T07:58:38.516Z,4.65
2023-04-20T08:01:06.074Z,4.75
2023-04-20T08:03:33.828Z,4.30
2023-04-20T08:06:01.181Z,4.85
2023-04-20T08:08:29.671Z,4.28
2023-04-20T08:10:58.498Z,5.35
2023-04-20T08:13:27.524Z,4.28
2023-04-20T08:15:54.812Z,4.25
2023-04-20T08:18:22.225Z,3.97
2023-04-20T08:20:51.097Z,4.18
2023-04-20T08:23:18.194Z,4.43
2023-04-20T08:25:45.337Z,3.92
2023-04-20T08:28:24.342Z,3.95
2023-04-20T08:30:56.838Z,4.40
2023-04-20T08:33:24.101Z,3.63
2023-04-20T08:35:51.904Z,4.38
2023-04-20T08:38:23.767Z,4.32
2023-04-20T08:40:57.886Z,4.15
2023-04-20T08:43:25.217Z,4.80
2023-04-20T08:45:53.472Z,5.00
2023-04-20T08:48:21.417Z,4.10
2023-04-20T08:50:49.179Z,5.28
2023-04-20T08:53:16.369Z,4.40
2023-04-20T08:55:43.531Z,4.55
2023-04-20T08:58:10.764Z,4.32
2023-04-20T09:00:46.630Z,4.53
2023-04-20T09:03:14.214Z,5.40
2023-04-20T09:05:41.524Z,5.30
2023-04-20T09:08:09.197Z,4.05
2023-04-20T09:10:43.503Z,6.85
2023-04-20T09:13:23.631Z,5.07
2023-04-20T09:15:50.941Z,4.80
2023-04-20T09:18:18.839Z,4.70
2023-04-20T09:20:46.198Z,5.05
2023-04-20T09:23:13.365Z,4.68
2023-04-20T09:25:43.623Z,4.22
2023-04-20T09:28:11.410Z,3.60
2023-04-20T09:30:46.015Z,4.30
2023-04-20T09:33:14.478Z,4.30
2023-04-20T09:35:45.201Z,4.53
2023-04-20T09:38:15.827Z,3.42
2023-04-20T09:40:42.942Z,2.70
2023-04-20T09:43:28.963Z,3.65
2023-04-20T09:45:58.918Z,4.07
2023-04-20T09:48:26.223Z,3.80
2023-04-20T09:50:53.350Z,3.28
2023-04-20T09:53:20.873Z,3.70
2023-04-20T09:55:51.986Z,4.07
2023-04-20T09:58:23.847Z,3.38
2023-04-20T10:00:51.587Z,3.33
2023-04-20T10:03:21.960Z,4.53
2023-04-20T10:05:51.161Z,4.18
2023-04-20T10:08:20.471Z,3.72
2023-04-20T10:10:52.294Z,4.18
2023-04-20T10:13:21.704Z,3.97
2023-04-20T10:15:48.840Z,4.07
2023-04-20T10:18:19.348Z,4.00
2023-04-20T10:20:46.694Z,4.05
2023-04-20T10:23:15.994Z,3.72
2023-04-20T10:25:45.411Z,3.60
2023-04-20T10:28:12.651Z,3.58
2023-04-20T10:30:50.432Z,3.55
2023-04-20T10:33:18.081Z,4.40
2023-04-20T10:35:49.521Z,4.30
2023-04-20T10:38:17.028Z,3.72
2023-04-20T10:40:44.122Z,4.25
2023-04-20T10:43:23.627Z,3.63
2023-04-20T10:45:50.978Z,3.70
2023-04-20T10:48:18.457Z,4.45
2023-04-20T10:50:46.042Z,3.30
2023-04-20T10:53:20.615Z,3.58
2023-04-20T10:55:48.016Z,3.72
2023-04-20T10:58:22.008Z,4.38
2023-04-20T11:00:57.557Z,4.60
2023-04-20T11:03:24.868Z,3.65
2023-04-20T11:05:52.048Z,4.40
2023-04-20T11:08:19.187Z,3.33
2023-04-20T11:10:46.359Z,3.20
2023-04-20T11:13:20.629Z,3.38
2023-04-20T11:15:47.704Z,4.43
2023-04-20T11:18:14.994Z,3.40
2023-04-20T11:20:52.154Z,3.17
2023-04-20T11:23:23.203Z,4.18
2023-04-20T11:25:52.622Z,3.45
2023-04-20T11:28:19.897Z,4.32
2023-04-20T11:30:47.346Z,3.70
2023-04-20T11:33:14.759Z,3.63
2023-04-20T11:35:43.136Z,3.80
2023-04-20T11:38:10.379Z,3.67
2023-04-20T11:40:37.504Z,3.88
2023-04-20T11:43:04.919Z,4.45
2023-04-20T11:45:36.811Z,3.40
2023-04-20T11:48:04.570Z,4.22
2023-04-20T11:50:31.852Z,3.58
2023-04-20T11:52:58.970Z,3.25
2023-04-20T11:55:26.081Z,3.55
2023-04-20T11:57:53.200Z,5.03
2023-04-20T12:00:20.528Z,3.40
2023-04-20T12:02:47.822Z,3.55
2023-04-20T12:05:15.280Z,4.03
2023-04-20T12:07:43.707Z,3.85
2023-04-20T12:10:10.869Z,3.38
2023-04-20T12:12:38.519Z,3.33
2023-04-20T12:15:06.670Z,3.33
2023-04-20T12:17:33.936Z,3.22
2023-04-20T12:20:01.188Z,3.75
2023-04-20T12:22:28.338Z,4.38
2023-04-20T12:24:55.443Z,3.20
2023-04-20T12:27:22.640Z,3.67
2023-04-20T12:29:49.820Z,3.75
2023-04-20T12:32:16.978Z,3.33
2023-04-20T12:34:44.119Z,3.47
2023-04-20T12:37:11.277Z,4.25
2023-04-20T12:39:38.377Z,4.10
2023-04-20T12:42:05.548Z,3.33
2023-04-20T12:44:32.681Z,3.97
2023-04-20T12:46:59.976Z,3.58
2023-04-20T12:49:27.166Z,3.58
2023-04-20T12:51:54.259Z,3.40
2023-04-20T12:54:21.405Z,3.72
2023-04-20T12:56:48.508Z,3.75
2023-04-20T12:59:15.837Z,3.78
2023-04-20T13:01:42.924Z,3.45
2023-04-20T13:04:10.413Z,4.22
2023-04-20T13:06:37.830Z,3.70
2023-04-20T13:09:05.838Z,3.42
2023-04-20T13:11:32.985Z,3.25
2023-04-20T13:14:00.748Z,3.78
2023-04-20T13:16:29.199Z,3.50
2023-04-20T13:18:56.464Z,3.25
2023-04-20T13:21:23.583Z,3.70
2023-04-20T13:23:51.223Z,3.83
2023-04-20T13:26:18.438Z,4.03
2023-04-20T13:28:45.657Z,2.80
2023-04-20T13:31:12.826Z,3.35
2023-04-20T13:33:40.018Z,3.47
2023-04-20T13:36:07.225Z,3.72
2023-04-20T13:38:34.749Z,3.97
2023-04-20T13:41:01.860Z,3.35
2023-04-20T13:43:28.943Z,2.97
2023-04-20T13:45:56.155Z,3.58
2023-04-20T13:48:23.378Z,2.40
2023-04-20T13:50:51.208Z,2.78
2023-04-20T13:53:18.292Z,2.53
2023-04-20T13:55:45.530Z,3.08
2023-04-20T13:58:12.631Z,2.88
2023-04-20T14:00:39.796Z,2.97
2023-04-20T14:03:07.119Z,3.20
2023-04-20T14:05:34.380Z,2.78
2023-04-20T14:08:01.723Z,3.10
2023-04-20T14:10:29.096Z,3.65
2023-04-20T14:12:56.585Z,3.45
2023-04-20T14:15:23.716Z,3.17
2023-04-20T14:17:52.452Z,3.80
2023-04-20T14:20:20.021Z,3.88
2023-04-20T14:22:47.171Z,3.53
2023-04-20T14:25:14.327Z,2.78
2023-04-20T14:27:41.548Z,3.30
2023-04-20T14:30:09.023Z,3.20
2023-04-20T14:32:36.347Z,3.15
2023-04-20T14:35:05.639Z,3.22
2023-04-20T14:37:33.118Z,4.15
2023-04-20T14:40:00.297Z,3.88
2023-04-20T14:42:27.461Z,3.15
2023-04-20T14:44:54.739Z,3.10
2023-04-20T14:47:21.971Z,3.70
2023-04-20T14:49:49.078Z,4.10
2023-04-20T14:52:16.154Z,2.92
2023-04-20T14:54:43.283Z,4.25
2023-04-20T14:57:10.410Z,3.67
2023-04-20T14:59:37.513Z,4.15
2023-04-20T15:02:05.821Z,4.05
2023-04-20T15:04:33.437Z,3.55
2023-04-20T15:07:00.939Z,3.20
2023-04-20T15:09:28.370Z,3.22
2023-04-20T15:11:56.645Z,4.97
2023-04-20T15:14:23.755Z,3.80
2023-04-20T15:16:52.220Z,3.42
2023-04-20T15:19:19.954Z,4.20
2023-04-20T15:21:47.080Z,3.53
2023-04-20T15:24:14.216Z,4.30
2023-04-20T15:26:41.901Z,4.28
2023-04-20T15:29:08.972Z,4.10
2023-04-20T15:31:36.153Z,4.07
2023-04-20T15:34:03.789Z,4.20
2023-04-20T15:36:30.939Z,4.10
2023-04-20T15:38:58.199Z,5.20
2023-04-20T15:41:25.449Z,4.25
2023-04-20T15:43:52.572Z,4.70
2023-04-20T15:46:23.382Z,3.83
2023-04-20T15:48:50.555Z,4.38
2023-04-20T15:51:19.995Z,4.43
2023-04-20T15:53:50.872Z,4.25
2023-04-20T15:56:22.548Z,5.90
2023-04-20T15:58:50.258Z,4.30
2023-04-20T16:01:18.100Z,4.75
2023-04-20T16:03:46.237Z,4.25
2023-04-20T16:06:13.870Z,4.38
2023-04-20T16:08:41.477Z,3.67
2023-04-20T16:11:08.714Z,4.60
2023-04-20T16:13:36.775Z,5.07
2023-04-20T16:16:04.118Z,4.65
2023-04-20T16:18:32.279Z,4.45
2023-04-20T16:20:59.530Z,4.40
2023-04-20T16:23:26.701Z,4.35
2023-04-20T16:25:53.829Z,4.80
2023-04-20T16:28:20.963Z,4.55
2023-04-20T16:30:48.299Z,4.10
2023-04-20T16:33:15.927Z,4.68
2023-04-20T16:35:43.053Z,4.75
2023-04-20T16:38:11.239Z,5.20
2023-04-20T16:40:38.366Z,4.30
2023-04-20T16:43:05.462Z,5.00
2023-04-20T16:45:33.495Z,5.03
2023-04-20T16:48:00.695Z,4.82
2023-04-20T16:50:28.081Z,5.65
2023-04-20T16:52:55.201Z,5.05
2023-04-20T16:55:22.798Z,5.30
2023-04-20T16:57:49.970Z,5.18
2023-04-20T17:00:17.462Z,4.75
2023-04-20T17:02:44.751Z,5.25
2023-04-20T17:05:12.194Z,4.50
2023-04-20T17:07:39.397Z,4.15
2023-04-20T17:10:06.796Z,4.65
2023-04-20T17:12:33.873Z,5.45
2023-04-20T17:15:01.028Z,4.40
2023-04-20T17:17:28.381Z,5.20
2023-04-20T17:19:55.630Z,4.22
2023-04-20T17:22:23.096Z,4.60
2023-04-20T17:24:50.163Z,5.03
2023-04-20T17:27:17.358Z,4.40
2023-04-20T17:29:45.088Z,4.18
2023-04-20T17:32:12.483Z,4.35
2023-04-20T17:34:40.085Z,4.82
2023-04-20T17:37:08.742Z,4.53
2023-04-20T17:39:35.926Z,4.50
2023-04-20T17:42:03.011Z,4.80
2023-04-20T17:44:30.141Z,4.93
2023-04-20T17:46:57.266Z,4.45
2023-04-20T17:49:24.350Z,5.28
2023-04-20T17:51:51.483Z,5.22
2023-04-20T17:54:18.772Z,4.80
2023-04-20T17:56:46.090Z,4.43
2023-04-20T17:59:13.446Z,4.75
2023-04-20T18:01:40.588Z,5.22
2023-04-20T18:04:08.566Z,5.43
2023-04-20T18:06:36.094Z,4.97
2023-04-20T18:09:04.902Z,5.07
2023-04-20T18:11:32.080Z,5.35
2023-04-20T18:13:59.257Z,5.63
2023-04-20T18:16:26.354Z,5.85
2023-04-20T18:18:53.601Z,5.70
2023-04-20T18:21:20.768Z,5.30
2023-04-20T18:23:47.916Z,6.40
2023-04-20T18:26:17.671Z,5.40
2023-04-20T18:28:45.764Z,6.63
2023-04-20T18:31:13.115Z,6.20
2023-04-20T18:33:40.273Z,7.95
2023-04-20T18:36:07.538Z,8.52
2023-04-20T18:38:35.262Z,7.90
2023-04-20T18:41:02.698Z,8.02
2023-04-20T18:43:32.252Z,9.55
2023-04-20T18:45:59.403Z,7.72
2023-04-20T18:48:26.744Z,9.63
2023-04-20T18:50:53.910Z,7.75
2023-04-20T18:53:21.016Z,7.25
2023-04-20T18:55:48.332Z,8.23
2023-04-20T18:58:15.540Z,7.65
2023-04-20T19:00:42.802Z,6.82
2023-04-20T19:03:10.607Z,6.18
2023-04-20T19:05:37.956Z,6.43
2023-04-20T19:08:05.245Z,5.47
2023-04-20T19:10:32.357Z,6.82
2023-04-20T19:12:59.528Z,5.57
2023-04-20T19:15:26.692Z,4.72
2023-04-20T19:17:55.558Z,4.75
2023-04-20T19:20:23.777Z,5.13
2023-04-20T19:22:50.881Z,4.35
2023-04-20T19:25:18.017Z,5.07
2023-04-20T19:27:45.175Z,5.93
2023-04-20T19:30:12.921Z,5.15
2023-04-20T19:32:40.151Z,5.03
2023-04-20T19:35:07.436Z,5.80
2023-04-20T19:37:34.615Z,4.88
2023-04-20T19:40:01.981Z,5.88
2023-04-20T19:42:29.215Z,4.65
2023-04-20T19:44:56.549Z,4.43
2023-04-20T19:47:23.650Z,4.68
2023-04-20T19:49:50.821Z,4.55
2023-04-20T19:52:17.949Z,5.15
2023-04-20T19:54:45.060Z,5.10
2023-04-20T19:57:12.273Z,4.70
2023-04-20T19:59:40.151Z,5.18
2023-04-20T20:02:07.783Z,4.25
2023-04-20T20:04:37.820Z,5.57
2023-04-20T20:07:05.210Z,5.90
2023-04-20T20:09:32.293Z,4.30
2023-04-20T20:12:01.147Z,4.25
2023-04-20T20:14:28.268Z,5.20
2023-04-20T20:16:56.588Z,4.18
2023-04-20T20:19:24.179Z,4.88
2023-04-20T20:21:51.462Z,4.78
2023-04-20T20:24:18.907Z,3.92
2023-04-20T20:26:46.220Z,4.53
2023-04-20T20:29:13.299Z,4.72
2023-04-20T20:31:40.423Z,4.55
2023-04-20T20:34:09.196Z,4.63
2023-04-20T20:36:36.459Z,4.38
2023-04-20T20:39:05.219Z,4.00
2023-04-20T20:41:32.956Z,4.35
2023-04-20T20:44:00.423Z,4.82
2023-04-20T20:46:27.652Z,4.78
2023-04-20T20:48:55.958Z,4.18
2023-04-20T20:51:23.061Z,4.90
2023-04-20T20:53:50.148Z,4.70
2023-04-20T20:56:17.281Z,5.65
2023-04-20T20:58:44.643Z,6.15
2023-04-20T21:01:12.236Z,5.47
2023-04-20T21:03:39.642Z,6.70
2023-04-20T21:06:06.872Z,4.70
2023-04-20T21:08:34.018Z,5.05
2023-04-20T21:11:01.325Z,5.82
2023-04-20T21:13:28.422Z,5.32
2023-04-20T21:15:55.695Z,4.28
2023-04-20T21:18:22.831Z,4.90
2023-04-20T21:20:49.963Z,4.22
2023-04-20T21:23:17.080Z,4.22
2023-04-20T21:25:44.219Z,4.45
2023-04-20T21:28:11.321Z,4.25
2023-04-20T21:30:38.445Z,4.90
2023-04-20T21:33:05.622Z,4.47
2023-04-20T21:35:32.746Z,5.07
2023-04-20T21:37:59.863Z,4.10
2023-04-20T21:40:27.047Z,4.10
2023-04-20T21:42:54.204Z,4.18
2023-04-20T21:45:21.391Z,3.35
2023-04-20T21:47:48.605Z,3.33
2023-04-20T21:50:15.810Z,3.30
2023-04-20T21:52:42.927Z,3.92
2023-04-20T21:55:10.277Z,3.70
2023-04-20T21:57:37.421Z,3.85
2023-04-20T22:00:04.835Z,3.70
2023-04-20T22:02:32.161Z,3.08
2023-04-20T22:04:59.300Z,3.30
2023-04-20T22:07:27.607Z,3.05
2023-04-20T22:09:54.780Z,3.13
2023-04-20T22:12:32.327Z,3.47
2023-04-20T22:15:06.080Z,3.33
2023-04-20T22:17:33.234Z,3.97
2023-04-20T22:20:00.322Z,3.15
2023-04-20T22:22:27.485Z,3.15
2023-04-20T22:24:54.598Z,3.03
2023-04-20T22:27:21.734Z,3.28
2023-04-20T22:29:48.896Z,3.55
2023-04-20T22:32:15.988Z,3.35
2023-04-20T22:34:43.077Z,4.07
2023-04-20T22:37:10.658Z,3.45
2023-04-20T22:39:37.753Z,3.35
2023-04-20T22:42:04.916Z,3.70
2023-04-20T22:44:32.091Z,3.53
2023-04-20T22:46:59.234Z,2.95
2023-04-20T22:49:26.532Z,3.33
2023-04-20T22:51:56.980Z,3.60
2023-04-20T22:54:24.600Z,3.55
2023-04-20T22:56:51.763Z,2.97
2023-04-20T22:59:19.811Z,3.10
2023-04-20T23:01:47.197Z,3.13
2023-04-20T23:04:14.375Z,2.95
2023-04-20T23:06:43.913Z,2.80
2023-04-20T23:09:11.689Z,2.75
2023-04-20T23:11:39.456Z,3.13
2023-04-20T23:14:07.368Z,3.33
2023-04-20T23:16:34.514Z,3.63
2023-04-20T23:19:01.896Z,3.03
2023-04-20T23:21:29.131Z,3.35
2023-04-20T23:23:57.730Z,3.20
2023-04-20T23:26:25.056Z,3.30
2023-04-20T23:28:52.499Z,3.10
2023-04-20T23:31:20.079Z,2.90
2023-04-20T23:33:47.695Z,3.70
2023-04-20T23:36:14.895Z,3.90
2023-04-20T23:38:42.115Z,3.70
2023-04-20T23:41:10.629Z,3.20
2023-04-20T23:43:41.612Z,2.97
2023-04-20T23:46:09.203Z,3.10
2023-04-20T23:48:36.371Z,3.70
2023-04-20T23:51:03.547Z,3.17
2023-04-20T23:53:30.681Z,3.03
2023-04-20T23:55:59.795Z,3.38
2023-04-20T23:58:27.480Z,3.15
